createdAt,value
2022-08-08T00:00:54.586Z,1.30
2022-08-08T00:05:43.834Z,1.20
2022-08-08T00:10:57.824Z,1.20
2022-08-08T00:15:56.550Z,1.10
2022-08-08T00:20:49.430Z,1.20
2022-08-08T00:25:46.616Z,1.27
2022-08-08T00:30:45.132Z,1.08
2022-08-08T00:35:52.565Z,1.30
2022-08-08T00:41:14.477Z,1.17
2022-08-08T00:46:32.231Z,1.38
2022-08-08T00:52:02.291Z,1.30
2022-08-08T00:57:29.436Z,0.95
2022-08-08T01:03:59.158Z,1.23
2022-08-08T01:08:51.799Z,1.25
2022-08-08T01:14:08.535Z,1.13
2022-08-08T01:19:52.019Z,1.10
2022-08-08T01:25:14.307Z,1.20
2022-08-08T01:30:53.585Z,1.30
2022-08-08T01:36:08.827Z,1.20
2022-08-08T01:41:06.462Z,1.30
2022-08-08T01:46:05.314Z,1.20
2022-08-08T01:51:32.136Z,1.45
2022-08-08T01:56:46.920Z,1.20
2022-08-08T02:02:00.466Z,1.40
2022-08-08T02:07:04.148Z,1.42
2022-08-08T02:11:59.096Z,1.30
2022-08-08T02:16:55.529Z,1.30
2022-08-08T02:22:03.288Z,1.30
2022-08-08T02:26:55.391Z,1.48
2022-08-08T02:32:05.107Z,1.42
2022-08-08T02:37:09.989Z,1.55
2022-08-08T02:44:32.860Z,1.00
2022-08-08T02:48:57.563Z,1.25
2022-08-08T02:54:05.592Z,1.58
2022-08-08T03:00:01.619Z,1.38
2022-08-08T03:05:19.215Z,1.40
2022-08-08T03:10:44.736Z,1.35
2022-08-08T03:16:11.225Z,1.60
2022-08-08T03:20:56.601Z,1.30
2022-08-08T03:25:48.007Z,1.48
2022-08-08T03:30:35.916Z,1.35
2022-08-08T03:35:21.820Z,1.42
2022-08-08T03:40:18.237Z,1.30
2022-08-08T03:46:03.230Z,2.20
2022-08-08T03:50:30.294Z,1.60
2022-08-08T03:55:56.032Z,1.55
2022-08-08T04:00:31.017Z,1.63
2022-08-08T04:05:19.608Z,1.63
2022-08-08T04:10:13.624Z,1.23
2022-08-08T04:14:58.744Z,1.60
2022-08-08T04:19:47.824Z,1.70
2022-08-08T04:24:33.842Z,1.60
2022-08-08T04:29:19.316Z,1.67
2022-08-08T04:34:04.538Z,1.50
2022-08-08T04:39:20.317Z,1.58
2022-08-08T04:43:58.118Z,1.63
2022-08-08T04:48:43.637Z,1.60
2022-08-08T04:54:30.271Z,1.60
2022-08-08T04:58:37.089Z,1.70
2022-08-08T05:04:10.628Z,1.58
2022-08-08T05:08:31.462Z,2.00
2022-08-08T05:13:17.912Z,1.60
2022-08-08T05:18:06.067Z,1.90
2022-08-08T05:22:51.614Z,1.88
2022-08-08T05:27:41.727Z,2.25
2022-08-08T05:32:34.396Z,2.00
2022-08-08T05:37:28.264Z,1.95
2022-08-08T05:42:33.739Z,1.70
2022-08-08T05:47:21.074Z,2.00
2022-08-08T05:52:07.070Z,2.05
2022-08-08T05:56:59.232Z,1.88
2022-08-08T06:01:58.012Z,1.70
2022-08-08T06:06:48.155Z,2.00
2022-08-08T06:11:45.736Z,1.77
2022-08-08T06:16:35.430Z,2.40
2022-08-08T06:21:32.510Z,2.35
2022-08-08T06:26:38.886Z,2.00
2022-08-08T06:31:32.274Z,2.25
2022-08-08T06:36:53.199Z,2.33
2022-08-08T06:41:49.101Z,2.40
2022-08-08T06:46:34.248Z,2.30
2022-08-08T06:51:25.210Z,2.53
2022-08-08T06:56:19.035Z,2.40
2022-08-08T07:01:52.201Z,2.55
2022-08-08T07:06:21.287Z,2.42
2022-08-08T07:11:09.029Z,2.05
2022-08-08T07:16:15.531Z,2.13
2022-08-08T07:21:04.541Z,1.83
2022-08-08T07:25:55.004Z,1.60
2022-08-08T07:30:41.226Z,1.60
2022-08-08T07:35:30.933Z,1.42
2022-08-08T07:40:21.162Z,1.40
2022-08-08T07:45:14.930Z,1.40
2022-08-08T07:50:02.969Z,1.45
2022-08-08T07:55:01.012Z,1.50
2022-08-08T07:59:54.003Z,1.60
2022-08-08T08:04:49.382Z,1.60
2022-08-08T08:09:42.503Z,1.50
2022-08-08T08:14:38.459Z,2.25
2022-08-08T08:19:31.932Z,1.60
2022-08-08T08:24:32.036Z,1.63
2022-08-08T08:29:19.536Z,1.58
2022-08-08T08:34:07.972Z,1.55
2022-08-08T08:38:54.998Z,1.70
2022-08-08T08:43:45.154Z,1.60
2022-08-08T08:48:32.359Z,1.30
2022-08-08T08:53:27.873Z,1.40
2022-08-08T08:58:34.146Z,1.50
2022-08-08T09:03:20.627Z,1.85
2022-08-08T09:08:22.193Z,1.50
2022-08-08T09:13:09.406Z,1.40
2022-08-08T09:17:56.260Z,1.60
2022-08-08T09:22:42.548Z,1.38
2022-08-08T09:27:55.547Z,1.55
2022-08-08T09:33:01.421Z,1.58
2022-08-08T09:38:01.750Z,1.40
2022-08-08T09:42:52.863Z,1.33
2022-08-08T09:48:11.384Z,1.42
2022-08-08T09:52:59.414Z,1.45
2022-08-08T09:57:55.720Z,1.65
2022-08-08T10:02:44.971Z,1.30
2022-08-08T10:07:36.025Z,1.40
2022-08-08T10:12:37.641Z,1.50
2022-08-08T10:17:56.768Z,1.48
2022-08-08T10:22:33.315Z,2.00
2022-08-08T10:27:23.089Z,1.60
2022-08-08T10:32:23.731Z,1.60
2022-08-08T10:37:14.198Z,1.50
2022-08-08T10:42:15.528Z,1.70
2022-08-08T10:47:12.413Z,1.50
2022-08-08T10:51:58.607Z,1.40
2022-08-08T10:56:46.544Z,1.70
2022-08-08T11:01:33.459Z,1.98
2022-08-08T11:06:19.943Z,1.50
2022-08-08T11:11:08.143Z,1.70
2022-08-08T11:16:32.286Z,1.45
2022-08-08T11:21:20.237Z,1.95
2022-08-08T11:26:08.250Z,1.67
2022-08-08T11:30:56.127Z,1.50
2022-08-08T11:35:47.091Z,1.58
2022-08-08T11:40:35.784Z,1.70
2022-08-08T11:45:25.304Z,1.60
2022-08-08T11:50:23.453Z,1.70
2022-08-08T11:55:23.153Z,1.67
2022-08-08T12:00:11.683Z,1.80
2022-08-08T12:05:12.488Z,1.80
2022-08-08T12:10:02.857Z,1.83
2022-08-08T12:15:07.273Z,1.90
2022-08-08T12:19:59.728Z,1.85
2022-08-08T12:24:54.120Z,1.63
2022-08-08T12:29:44.905Z,1.50
2022-08-08T12:34:42.538Z,1.63
2022-08-08T12:39:56.209Z,1.83
2022-08-08T12:44:36.875Z,1.70
2022-08-08T12:49:43.810Z,1.80
2022-08-08T12:54:36.548Z,1.60
2022-08-08T12:59:27.246Z,1.50
2022-08-08T13:04:24.417Z,1.73
2022-08-08T13:09:12.298Z,2.00
2022-08-08T13:14:11.462Z,1.63
2022-08-08T13:19:01.758Z,1.48
2022-08-08T13:23:56.036Z,1.50
2022-08-08T13:28:42.505Z,1.70
2022-08-08T13:33:42.092Z,1.60
2022-08-08T13:38:29.366Z,1.52
2022-08-08T13:43:16.096Z,1.80
2022-08-08T13:48:03.799Z,1.80
2022-08-08T13:52:55.071Z,1.40
2022-08-08T13:58:07.390Z,1.48
2022-08-08T14:02:48.436Z,1.65
2022-08-08T14:07:35.318Z,1.92
2022-08-08T14:12:29.217Z,1.50
2022-08-08T14:17:22.491Z,1.40
2022-08-08T14:22:24.494Z,1.63
2022-08-08T14:27:19.475Z,1.30
2022-08-08T14:32:26.401Z,1.48
2022-08-08T14:37:20.140Z,1.60
2022-08-08T14:42:07.734Z,1.50
2022-08-08T14:47:01.246Z,1.30
2022-08-08T14:51:53.241Z,1.85
2022-08-08T14:56:40.403Z,1.35
2022-08-08T15:01:37.292Z,1.20
2022-08-08T15:06:26.469Z,1.38
2022-08-08T15:11:18.945Z,1.48
2022-08-08T15:16:12.177Z,1.50
2022-08-08T15:20:59.896Z,1.20
2022-08-08T15:25:45.834Z,1.52
2022-08-08T15:30:33.618Z,1.40
2022-08-08T15:35:22.414Z,1.40
2022-08-08T15:40:11.009Z,1.33
2022-08-08T15:44:56.734Z,1.20
2022-08-08T15:49:44.957Z,1.33
2022-08-08T15:54:38.417Z,1.27
2022-08-08T16:00:05.219Z,1.20
2022-08-08T16:04:31.049Z,1.35
2022-08-08T16:13:12.068Z,1.30
2022-08-08T16:14:32.355Z,1.25
2022-08-08T16:19:23.404Z,1.20
2022-08-08T16:24:12.324Z,1.20
2022-08-08T16:28:59.999Z,1.33
2022-08-08T16:33:58.096Z,1.20
2022-08-08T16:38:47.566Z,1.33
2022-08-08T16:43:42.216Z,1.20
2022-08-08T16:48:40.067Z,1.33
2022-08-08T16:55:00.743Z,1.20
2022-08-08T16:58:34.569Z,1.17
2022-08-08T17:03:25.449Z,1.25
2022-08-08T17:08:28.213Z,1.50
2022-08-08T17:13:13.263Z,1.25
2022-08-08T17:18:03.437Z,1.20
2022-08-08T17:23:16.784Z,1.30
2022-08-08T17:27:58.686Z,1.20
2022-08-08T17:33:43.868Z,1.33
2022-08-08T17:37:51.934Z,1.70
2022-08-08T17:42:38.668Z,1.25
2022-08-08T17:47:27.541Z,1.48
2022-08-08T17:52:13.602Z,1.45
2022-08-08T17:56:59.752Z,1.20
2022-08-08T18:01:56.641Z,1.30
2022-08-08T18:06:44.635Z,1.45
2022-08-08T18:11:31.004Z,1.40
2022-08-08T18:16:23.518Z,1.63
2022-08-08T18:21:10.425Z,1.50
2022-08-08T18:26:09.685Z,1.20
2022-08-08T18:30:54.934Z,1.50
2022-08-08T18:35:48.916Z,1.33
2022-08-08T18:40:35.428Z,1.60
2022-08-08T18:46:00.703Z,1.63
2022-08-08T18:50:30.396Z,1.55
2022-08-08T18:55:17.364Z,1.48
2022-08-08T19:00:13.914Z,1.90
2022-08-08T19:05:05.355Z,1.55
2022-08-08T19:10:14.740Z,1.80
2022-08-08T19:14:56.305Z,1.65
2022-08-08T19:19:44.078Z,1.70
2022-08-08T19:25:30.534Z,1.70
2022-08-08T19:29:54.875Z,1.88
2022-08-08T19:34:41.562Z,1.90
2022-08-08T19:39:35.558Z,1.80
2022-08-08T19:44:42.439Z,2.35
2022-08-08T19:49:28.914Z,3.50
2022-08-08T19:54:23.267Z,2.40
2022-08-08T19:59:08.644Z,1.95
2022-08-08T20:04:01.157Z,1.80
2022-08-08T20:08:48.923Z,1.90
2022-08-08T20:14:32.460Z,2.08
2022-08-08T20:18:53.148Z,2.17
2022-08-08T20:23:42.127Z,2.10
2022-08-08T20:28:32.671Z,2.20
2022-08-08T20:38:02.420Z,2.10
2022-08-08T20:42:56.924Z,1.98
2022-08-08T20:47:42.845Z,2.00
2022-08-08T20:52:30.388Z,2.08
2022-08-08T20:57:17.498Z,2.05
2022-08-08T21:02:09.029Z,1.90
2022-08-08T21:06:58.013Z,2.10
2022-08-08T21:11:51.376Z,1.92
2022-08-08T21:16:38.565Z,2.20
2022-08-08T21:21:39.836Z,2.03
2022-08-08T21:26:27.862Z,1.90
2022-08-08T21:31:22.677Z,1.98
2022-08-08T21:36:20.303Z,2.20
2022-08-08T21:41:08.548Z,2.10
2022-08-08T21:48:07.001Z,2.00
2022-08-08T21:51:11.500Z,2.33
2022-08-08T21:56:19.720Z,2.00
2022-08-08T22:01:06.752Z,2.33
2022-08-08T22:06:12.179Z,2.08
2022-08-08T22:10:57.607Z,2.00
2022-08-08T22:15:43.631Z,2.00
2022-08-08T22:20:48.037Z,2.13
2022-08-08T22:26:20.327Z,1.98
2022-08-08T22:30:40.486Z,1.88
2022-08-08T22:36:05.400Z,2.00
2022-08-08T22:40:35.923Z,1.70
2022-08-08T22:45:21.063Z,1.90
2022-08-08T22:50:25.064Z,1.70
2022-08-08T22:55:13.297Z,1.70
2022-08-08T23:00:01.229Z,1.70
2022-08-08T23:05:04.705Z,1.77
2022-08-08T23:09:55.449Z,1.77
2022-08-08T23:14:56.019Z,1.77
2022-08-08T23:19:48.931Z,1.67
2022-08-08T23:24:41.998Z,1.50
2022-08-08T23:29:31.179Z,1.80
2022-08-08T23:34:19.536Z,1.65
2022-08-08T23:39:07.969Z,1.55
2022-08-08T23:43:54.269Z,2.00
2022-08-08T23:49:07.324Z,1.45
2022-08-08T23:54:06.211Z,1.50
2022-08-08T23:58:55.454Z,1.30
